Time;durP1;ratioP1;P1;durP2;ratioP2;P2;SDS_P1;SDS_P2;PMS_P1;PMS_P2;Temp;Humidity;BMP_temperature;BMP_pressure;BME280_temperature;BME280_humidity;BME280_pressure;Samples;Min_cycle;Max_cycle;Signal;HPM_P1;HPM_P2
2022/04/23 00:01:43;;;;;;;25.92;18.88;;;;;;;11.86;55.35;97739.59;5205458;28;20130;-71
2022/04/23 00:04:34;;;;;;;27.40;18.88;;;;;;;11.77;56.07;97742.31;5199855;28;20076;-71
2022/04/23 00:07:25;;;;;;;29.88;19.63;;;;;;;11.67;56.82;97741.75;5190085;28;20455;-71
2022/04/23 00:10:15;;;;;;;28.00;18.30;;;;;;;11.50;56.08;97746.38;5205466;28;20092;-71
2022/04/23 00:13:05;;;;;;;28.83;18.15;;;;;;;11.50;56.77;97745.56;5205316;28;20060;-71
2022/04/23 00:15:55;;;;;;;25.02;18.15;;;;;;;11.44;57.05;97746.28;5190256;28;20140;-71
2022/04/23 00:18:45;;;;;;;27.55;19.25;;;;;;;11.33;56.92;97744.06;5200563;28;20601;-72
2022/04/23 00:21:35;;;;;;;27.42;19.38;;;;;;;11.33;56.84;97744.91;5205043;28;20053;-71
2022/04/23 00:24:26;;;;;;;33.15;20.23;;;;;;;11.19;57.75;97748.31;5204798;28;20049;-71
2022/04/23 00:27:16;;;;;;;33.53;20.30;;;;;;;11.17;57.08;97751.16;5204465;28;20492;-72
2022/04/23 00:30:08;;;;;;;29.02;20.23;;;;;;;10.99;57.32;97750.59;5190080;28;20053;-72
2022/04/23 00:33:00;;;;;;;29.25;20.08;;;;;;;11.07;57.16;97755.88;5204681;28;20735;-72
2022/04/23 00:35:50;;;;;;;31.20;20.38;;;;;;;11.07;57.73;97760.34;5204674;28;20056;-72
2022/04/23 00:38:42;;;;;;;28.00;19.85;;;;;;;10.96;57.43;97743.84;5205376;28;20060;-72
2022/04/23 00:41:46;;;;;;;34.63;20.05;;;;;;;11.00;57.78;97762.91;5204736;28;20049;-72
2022/04/23 00:44:37;;;;;;;30.90;20.42;;;;;;;10.94;57.93;97755.63;5190225;28;20080;-70
2022/04/23 00:47:28;;;;;;;29.70;19.98;;;;;;;10.77;58.95;97757.56;5189500;28;20060;-71
2022/04/23 00:50:21;;;;;;;31.63;20.30;;;;;;;10.75;58.84;97749.78;5190062;28;20057;-71
2022/04/23 00:53:11;;;;;;;33.90;19.88;;;;;;;10.68;58.98;97745.34;5204812;28;20053;-70
2022/04/23 00:56:01;;;;;;;28.23;19.73;;;;;;;10.63;59.37;97756.50;5204624;28;20060;-70
2022/04/23 00:58:52;;;;;;;30.38;18.50;;;;;;;10.34;59.13;97739.41;5200750;28;20195;-70
2022/04/23 01:01:42;;;;;;;32.15;20.10;;;;;;;10.54;59.89;97754.88;5175470;28;20075;-70
2022/04/23 01:04:33;;;;;;;28.58;19.05;;;;;;;10.56;59.77;97752.88;5203980;28;20423;-71
2022/04/23 01:07:24;;;;;;;27.05;19.10;;;;;;;10.39;59.81;97751.31;5203830;28;20132;-70
2022/04/23 01:10:14;;;;;;;30.45;18.77;;;;;;;10.16;59.24;97732.66;5203997;28;20124;-70
2022/04/23 01:13:06;;;;;;;26.73;18.73;;;;;;;10.17;58.35;97756.34;5203999;28;20052;-71
2022/04/23 01:15:56;;;;;;;26.45;18.50;;;;;;;10.08;59.84;97749.41;5188619;28;20052;-71
2022/04/23 01:18:46;;;;;;;28.48;18.48;;;;;;;10.01;59.54;97748.47;5203342;28;20518;-70
2022/04/23 01:21:36;;;;;;;27.80;18.48;;;;;;;9.97;59.78;97753.28;5188926;28;20429;-71
2022/04/23 01:24:27;;;;;;;29.27;18.75;;;;;;;9.90;61.17;97762.91;5204670;28;20061;-71
2022/04/23 01:27:18;;;;;;;27.50;18.85;;;;;;;9.98;61.00;97754.09;5203141;28;20662;-71
2022/04/23 01:30:10;;;;;;;30.38;19.63;;;;;;;10.12;61.53;97748.91;5204316;28;20065;-71
2022/04/23 01:33:00;;;;;;;30.95;20.15;;;;;;;10.07;60.56;97756.53;5203759;28;20415;-71
2022/04/23 01:35:51;;;;;;;28.58;18.75;;;;;;;9.91;61.52;97734.59;5191658;28;20060;-71
2022/04/23 01:38:42;;;;;;;32.67;21.02;;;;;;;10.17;61.03;97753.69;5203807;28;20518;-71
2022/04/23 01:41:32;;;;;;;30.42;20.30;;;;;;;10.00;61.22;97742.34;5188555;28;20060;-70
2022/04/23 01:44:23;;;;;;;30.45;19.90;;;;;;;9.96;60.73;97741.00;5188615;28;20050;-71
2022/04/23 01:47:13;;;;;;;30.65;18.88;;;;;;;9.76;61.76;97742.41;5202871;28;20072;-70
2022/04/23 01:50:04;;;;;;;28.25;18.45;;;;;;;10.03;62.16;97738.50;5203683;28;20099;-70
2022/04/23 01:52:54;;;;;;;29.02;17.88;;;;;;;9.67;62.17;97699.25;5203406;28;20068;-71
2022/04/23 01:55:44;;;;;;;28.17;18.13;;;;;;;9.95;61.89;97730.59;5203355;28;20543;-71
2022/04/23 01:58:33;;;;;;;25.85;17.05;;;;;;;9.90;62.61;97728.47;5204014;28;20551;-71
2022/04/23 02:01:23;;;;;;;28.58;17.70;;;;;;;10.07;61.94;97729.25;5202771;28;20059;-71
2022/04/23 02:04:14;;;;;;;29.02;18.17;;;;;;;10.02;62.70;97736.84;5203482;28;20079;-71
2022/04/23 02:07:04;;;;;;;25.80;17.65;;;;;;;9.77;62.33;97714.94;5203358;28;20511;-72
2022/04/23 02:09:55;;;;;;;26.15;18.05;;;;;;;9.70;61.93;97737.78;5215681;22;20049;-68
2022/04/23 02:12:46;;;;;;;24.20;16.17;;;;;;;9.54;61.75;97733.34;5182076;28;20298;-67
2022/04/23 02:15:36;;;;;;;26.48;15.40;;;;;;;9.48;62.73;97747.25;5167489;28;20058;-69
2022/04/23 02:18:26;;;;;;;22.92;14.73;;;;;;;9.35;62.31;97748.59;5182865;28;20123;-69
2022/04/23 02:21:17;;;;;;;23.75;14.57;;;;;;;9.35;62.43;97747.75;5168174;28;20068;-74
2022/04/23 02:24:08;;;;;;;20.30;15.13;;;;;;;9.60;63.99;97746.75;5182325;28;20061;-68
2022/04/23 02:27:01;;;;;;;21.13;15.27;;;;;;;9.62;63.46;97749.22;5163761;28;20065;-70
2022/04/23 02:29:52;;;;;;;22.40;14.68;;;;;;;9.59;64.18;97725.72;5182585;28;20363;-68
2022/04/23 02:32:42;;;;;;;19.85;13.88;;;;;;;9.93;64.44;97751.13;5179047;28;20087;-67
2022/04/23 02:35:34;;;;;;;22.83;15.50;;;;;;;10.01;64.24;97751.09;5179699;28;20525;-68
2022/04/23 02:38:24;;;;;;;22.02;14.85;;;;;;;9.69;64.19;97744.88;5182086;28;20108;-66
2022/04/23 02:41:14;;;;;;;24.05;15.20;;;;;;;9.78;64.76;97754.47;5160370;28;20050;-69
2022/04/23 02:44:05;;;;;;;23.77;15.05;;;;;;;9.69;63.55;97754.66;5166082;28;20068;-67
2022/04/23 02:46:55;;;;;;;21.67;15.02;;;;;;;9.93;62.93;97761.72;5166700;28;20057;-70
2022/04/23 02:49:45;;;;;;;22.08;15.07;;;;;;;9.43;63.32;97741.63;5167156;28;20132;-68
2022/04/23 02:52:36;;;;;;;21.85;15.20;;;;;;;9.51;63.42;97747.75;5181306;28;20477;-66
2022/04/23 02:55:28;;;;;;;20.88;14.48;;;;;;;9.40;64.24;97761.28;5181604;28;20211;-70
2022/04/23 02:58:18;;;;;;;21.60;14.27;;;;;;;9.44;63.73;97735.34;5181903;28;20486;-69
2022/04/23 03:01:10;;;;;;;20.90;14.60;;;;;;;9.50;63.83;97745.25;5172839;28;20150;-68
2022/04/23 03:04:00;;;;;;;21.88;14.45;;;;;;;9.77;62.99;97752.81;5177101;28;20196;-70
2022/04/23 03:06:50;;;;;;;20.33;14.48;;;;;;;9.35;63.92;97753.06;5153486;28;20154;-69
2022/04/23 03:09:40;;;;;;;20.77;14.43;;;;;;;9.20;63.74;97752.06;5182281;28;20107;-72
2022/04/23 03:12:30;;;;;;;27.35;15.13;;;;;;;9.13;64.40;97762.47;5181191;28;20100;-71
2022/04/23 03:15:21;;;;;;;19.75;13.88;;;;;;;8.98;64.46;97766.78;5181761;28;20104;-70
2022/04/23 03:18:13;;;;;;;21.60;15.10;;;;;;;8.94;64.16;97753.88;5181708;28;20065;-68
2022/04/23 03:21:03;;;;;;;19.73;13.40;;;;;;;8.88;63.75;97764.28;5168912;28;20053;-66
2022/04/23 03:23:53;;;;;;;20.95;14.48;;;;;;;8.88;64.12;97762.47;5181688;28;20046;-67
2022/04/23 03:26:45;;;;;;;19.20;13.30;;;;;;;8.72;64.22;97759.78;5164507;28;20049;-66
2022/04/23 03:29:36;;;;;;;23.60;15.32;;;;;;;8.57;64.73;97742.88;5181719;28;20058;-68
2022/04/23 03:32:27;;;;;;;18.92;14.05;;;;;;;8.68;65.10;97767.22;5165973;28;20089;-66
2022/04/23 03:35:17;;;;;;;20.02;14.18;;;;;;;8.65;65.16;97766.72;5180794;28;20057;-66
2022/04/23 03:38:07;;;;;;;23.02;14.48;;;;;;;8.65;64.42;97770.16;5181971;28;20061;-68
2022/04/23 03:40:56;;;;;;;23.00;14.95;;;;;;;8.72;64.60;97766.88;5152736;28;20056;-66
2022/04/23 03:43:46;;;;;;;23.67;15.68;;;;;;;8.68;65.27;97769.84;5181602;28;20049;-66
2022/04/23 03:46:36;;;;;;;23.05;16.20;;;;;;;8.83;65.02;97777.13;5176135;28;20050;-66
2022/04/23 03:49:29;;;;;;;24.55;16.45;;;;;;;9.09;66.00;97766.44;5182583;28;20046;-69
2022/04/23 03:52:19;;;;;;;24.17;16.13;;;;;;;8.97;65.35;97763.28;5180719;28;20050;-66
2022/04/23 03:55:11;;;;;;;25.08;16.88;;;;;;;9.06;65.08;97764.13;5181119;28;20177;-69
2022/04/23 03:58:02;;;;;;;23.67;16.02;;;;;;;8.82;65.23;97728.75;5181262;28;20100;-70
2022/04/23 04:00:52;;;;;;;25.50;16.23;;;;;;;8.86;66.20;97753.84;5184196;28;20054;-69
2022/04/23 04:03:43;;;;;;;24.95;15.70;;;;;;;8.92;65.96;97757.66;5180649;28;20038;-67
2022/04/23 04:06:33;;;;;;;22.92;16.08;;;;;;;8.84;65.47;97753.19;5184955;28;20133;-66
2022/04/23 04:09:24;;;;;;;30.17;17.73;;;;;;;8.82;66.08;97744.59;5170077;28;20054;-69
2022/04/23 04:12:14;;;;;;;32.85;18.10;;;;;;;8.81;66.30;97735.03;5184228;28;20117;-71
2022/04/23 04:15:10;;;;;;;28.83;18.73;;;;;;;9.22;65.62;97752.72;5169371;28;20050;-71
2022/04/23 04:18:01;;;;;;;29.90;19.95;;;;;;;9.28;66.06;97752.88;5184417;28;20054;-69
2022/04/23 04:20:53;;;;;;;32.65;20.90;;;;;;;9.26;65.98;97754.84;5169494;28;20136;-70
2022/04/23 04:23:44;;;;;;;31.02;20.10;;;;;;;9.40;65.68;97762.16;5170252;28;20053;-71
2022/04/23 04:26:34;;;;;;;29.70;20.13;;;;;;;9.39;65.86;97757.00;5168591;28;20575;-68
2022/04/23 04:29:25;;;;;;;31.92;20.55;;;;;;;9.57;65.94;97764.75;5183396;28;20112;-68
2022/04/23 04:32:15;;;;;;;30.38;19.73;;;;;;;9.46;65.84;97741.28;5168398;28;20057;-70
2022/04/23 04:35:10;;;;;;;29.48;20.05;;;;;;;9.69;65.60;97763.41;5169228;28;20159;-71
2022/04/23 04:38:01;;;;;;;29.90;19.77;;;;;;;9.65;65.09;97738.28;5184479;28;20147;-68
2022/04/23 04:40:52;;;;;;;30.05;20.25;;;;;;;9.77;65.00;97752.00;5184216;28;20565;-70
2022/04/23 04:43:42;;;;;;;30.15;19.75;;;;;;;10.01;64.30;97751.09;5169157;28;20053;-72
2022/04/23 04:46:33;;;;;;;25.38;18.20;;;;;;;9.87;65.14;97753.47;5183910;28;20061;-70
2022/04/23 04:49:23;;;;;;;29.00;19.23;;;;;;;10.03;64.42;97754.38;5168094;28;20046;-68
2022/04/23 04:52:15;;;;;;;25.27;18.10;;;;;;;10.08;64.27;97765.31;5182638;28;20053;-68
2022/04/23 04:55:05;;;;;;;26.00;17.42;;;;;;;10.04;63.85;97775.44;5181571;28;20049;-68
2022/04/23 04:57:55;;;;;;;27.83;18.60;;;;;;;10.10;64.33;97765.97;5183236;28;20056;-71
2022/04/23 05:00:45;;;;;;;27.58;18.55;;;;;;;10.18;63.92;97773.88;5181801;28;20057;-68
2022/04/23 05:03:35;;;;;;;27.95;18.45;;;;;;;10.16;64.23;97757.31;5155729;28;20046;-70
2022/04/23 05:06:26;;;;;;;26.08;18.50;;;;;;;10.35;63.64;97770.19;5183876;28;20077;-68
2022/04/23 05:09:16;;;;;;;25.35;17.65;;;;;;;10.37;64.39;97777.16;5183650;28;20057;-69
2022/04/23 05:12:07;;;;;;;28.55;17.35;;;;;;;10.50;63.27;97782.75;5182145;28;20539;-69
2022/04/23 05:14:57;;;;;;;25.25;17.88;;;;;;;10.53;63.28;97785.88;5183188;28;20064;-69
2022/04/23 05:17:47;;;;;;;22.13;16.60;;;;;;;10.41;62.83;97751.97;5183410;28;20060;-69
2022/04/23 05:20:38;;;;;;;25.70;17.33;;;;;;;10.67;63.50;97786.13;5182625;28;20060;-71
2022/04/23 05:23:28;;;;;;;28.35;17.90;;;;;;;10.73;63.32;97786.25;5168166;28;20048;-70
2022/04/23 05:26:19;;;;;;;24.38;16.65;;;;;;;10.74;62.30;97782.59;5182463;28;20056;-71
2022/04/23 05:29:09;;;;;;;24.20;17.15;;;;;;;10.88;62.71;97788.97;5183709;28;20065;-68
2022/04/23 05:31:59;;;;;;;26.25;17.63;;;;;;;11.27;62.08;97794.19;5182576;28;20061;-67
2022/04/23 05:34:50;;;;;;;23.67;16.90;;;;;;;11.29;61.12;97768.31;5183118;28;20092;-70
2022/04/23 05:37:40;;;;;;;23.95;16.83;;;;;;;11.40;61.60;97782.16;5168566;28;20085;-68
2022/04/23 05:40:30;;;;;;;21.45;16.10;;;;;;;11.56;61.20;97797.94;5183080;28;20120;-68
2022/04/23 05:43:21;;;;;;;22.77;16.20;;;;;;;11.89;60.60;97790.53;5183083;28;20065;-70
2022/04/23 05:46:11;;;;;;;21.17;15.77;;;;;;;11.86;60.46;97801.50;5182725;28;20554;-71
2022/04/23 05:49:04;;;;;;;21.42;15.43;;;;;;;11.96;60.82;97795.94;5183063;28;20088;-70
2022/04/23 05:51:54;;;;;;;22.90;15.50;;;;;;;11.98;61.16;97800.03;5182417;28;20060;-67
2022/04/23 05:54:44;;;;;;;22.35;15.57;;;;;;;12.10;61.13;97807.59;5182584;28;20143;-68
2022/04/23 05:57:35;;;;;;;20.10;14.70;;;;;;;12.14;60.84;97809.69;5169583;28;20157;-69
2022/04/23 06:00:24;;;;;;;18.80;14.35;;;;;;;12.31;60.12;97812.16;5164900;28;20108;-68
2022/04/23 06:03:14;;;;;;;19.85;14.35;;;;;;;12.44;60.34;97815.00;5180878;28;20117;-68
2022/04/23 06:06:05;;;;;;;19.02;13.52;;;;;;;12.39;59.72;97812.09;5179967;28;20137;-69
2022/04/23 06:08:56;;;;;;;19.08;13.18;;;;;;;12.40;59.54;97803.91;5181794;28;20046;-72
2022/04/23 06:11:47;;;;;;;16.30;12.23;;;;;;;12.56;59.13;97810.03;5179842;28;20061;-67
2022/04/23 06:14:37;;;;;;;19.65;11.98;;;;;;;12.33;59.23;97812.81;5183064;28;20183;-69
2022/04/23 06:17:28;;;;;;;20.90;12.05;;;;;;;12.19;60.16;97823.25;5175431;28;20057;-69
2022/04/23 06:20:19;;;;;;;24.50;17.70;;;;;;;12.64;58.99;97801.94;5182511;28;20128;-68
2022/04/23 06:23:09;;;;;;;15.63;11.75;;;;;;;12.73;58.25;97805.34;5182074;28;20136;-68
2022/04/23 06:26:00;;;;;;;16.85;11.63;;;;;;;12.85;58.90;97825.13;5166221;28;20139;-67
2022/04/23 06:28:50;;;;;;;16.65;11.07;;;;;;;12.90;58.51;97828.03;5182345;28;20056;-70
2022/04/23 06:31:40;;;;;;;15.82;11.27;;;;;;;13.10;57.84;97823.75;5180855;28;20053;-68
2022/04/23 06:34:30;;;;;;;15.32;11.43;;;;;;;13.00;58.05;97820.59;5166993;28;20057;-71
2022/04/23 06:37:21;;;;;;;15.13;11.30;;;;;;;13.25;57.98;97821.09;5167173;28;20522;-68
2022/04/23 06:40:12;;;;;;;13.25;10.73;;;;;;;13.51;56.32;97812.53;5182133;28;20053;-68
2022/04/23 06:43:03;;;;;;;16.83;10.93;;;;;;;12.66;58.48;97822.03;5182936;28;20128;-69
2022/04/23 06:45:57;;;;;;;12.65;9.18;;;;;;;12.31;59.69;97817.47;5166157;28;20049;-71
2022/04/23 06:48:48;;;;;;;11.43;8.77;;;;;;;12.22;60.08;97830.88;5169140;28;20058;-67
2022/04/23 06:51:40;;;;;;;10.55;8.00;;;;;;;12.22;59.24;97833.53;5183268;28;20416;-65
2022/04/23 06:54:30;;;;;;;11.68;8.45;;;;;;;12.24;59.23;97825.34;5165980;28;20050;-70
2022/04/23 06:57:23;;;;;;;9.90;7.85;;;;;;;12.84;58.09;97820.81;5181999;28;20089;-67
2022/04/23 07:00:13;;;;;;;9.27;7.60;;;;;;;12.96;57.27;97821.97;5177508;28;20424;-69
2022/04/23 07:03:03;;;;;;;10.45;8.13;;;;;;;13.21;57.47;97813.63;5165227;28;20054;-70
2022/04/23 07:05:54;;;;;;;8.05;6.90;;;;;;;12.57;58.19;97828.47;5171641;28;20196;-68
2022/04/23 07:08:47;;;;;;;11.23;7.35;;;;;;;12.22;59.47;97824.72;5161193;28;20722;-67
2022/04/23 07:11:38;;;;;;;9.25;6.75;;;;;;;12.01;60.50;97798.03;5175171;28;20155;-66
2022/04/23 07:14:28;;;;;;;9.50;6.18;;;;;;;12.43;59.03;97824.81;5173444;28;20056;-67
2022/04/23 07:17:27;;;;;;;7.93;6.38;;;;;;;12.79;58.62;97828.53;5175125;28;20053;-69
2022/04/23 07:20:18;;;;;;;9.02;6.38;;;;;;;12.60;58.77;97804.16;5172569;28;20058;-69
2022/04/23 07:26:17;;;;;;;8.05;5.95;;;;;;;12.53;57.92;97829.03;5172744;28;20136;-69
2022/04/23 07:29:10;;;;;;;7.43;5.88;;;;;;;12.98;57.87;97827.09;5158583;28;20492;-67
2022/04/23 07:32:01;;;;;;;12.70;5.80;;;;;;;13.06;57.28;97827.00;5179761;28;20053;-69
2022/04/23 07:38:11;;;;;;;6.13;5.07;;;;;;;13.00;57.57;97822.44;5170048;28;21557;-68
2022/04/23 07:41:02;;;;;;;7.25;5.45;;;;;;;12.87;57.35;97829.22;5183009;28;20049;-70
2022/04/23 07:43:52;;;;;;;9.75;6.18;;;;;;;13.06;57.28;97832.31;5165632;28;20440;-68
2022/04/23 07:46:42;;;;;;;7.00;6.10;;;;;;;12.66;57.48;97826.53;5182093;28;20049;-69
2022/04/23 07:49:32;;;;;;;7.25;5.35;;;;;;;12.42;57.74;97832.97;5165811;28;20196;-68
2022/04/23 07:52:23;;;;;;;9.60;6.05;;;;;;;12.73;56.85;97831.94;5167883;28;20061;-68
2022/04/23 07:55:14;;;;;;;7.18;6.03;;;;;;;13.31;56.54;97828.34;5182102;28;20064;-69
2022/04/23 07:58:06;;;;;;;9.55;5.60;;;;;;;12.85;57.30;97825.97;5168428;28;20077;-69
2022/04/23 08:00:56;;;;;;;8.88;6.38;;;;;;;12.52;57.56;97830.03;5167493;28;20135;-71
2022/04/23 08:03:46;;;;;;;8.40;5.68;;;;;;;12.90;57.00;97791.63;5182967;28;20042;-68
2022/04/23 08:06:37;;;;;;;6.85;5.47;;;;;;;13.52;55.90;97816.84;5169111;28;20045;-68
2022/04/23 08:09:27;;;;;;;7.90;5.88;;;;;;;13.92;53.76;97821.69;5183410;28;20523;-67
2022/04/23 08:12:17;;;;;;;8.80;6.35;;;;;;;14.33;53.39;97824.41;5227964;23;20056;-69
2022/04/23 08:15:08;;;;;;;10.15;5.88;;;;;;;14.82;53.02;97828.78;5210958;28;20520;-69
2022/04/23 08:17:58;;;;;;;6.50;5.38;;;;;;;14.20;53.84;97814.47;5209984;28;20061;-68
2022/04/23 08:20:48;;;;;;;6.35;5.32;;;;;;;13.88;54.67;97821.25;5222200;28;20433;-70
2022/04/23 08:23:38;;;;;;;7.55;6.00;;;;;;;13.98;53.30;97816.41;5213932;28;20314;-70
2022/04/23 08:26:29;;;;;;;8.52;5.75;;;;;;;14.01;53.83;97818.69;5200883;28;20422;-70
2022/04/23 08:32:28;;;;;;;13.55;5.47;;;;;;;14.80;51.28;97822.81;5202037;28;20143;-71
2022/04/23 08:35:19;;;;;;;7.70;5.70;;;;;;;13.80;54.19;97822.19;5209561;28;20072;-70
2022/04/23 08:38:10;;;;;;;6.70;5.38;;;;;;;14.15;53.74;97814.25;5209981;28;20053;-70
2022/04/23 08:41:03;;;;;;;7.20;5.70;;;;;;;14.32;53.55;97828.91;5206212;28;20058;-71
2022/04/23 08:43:52;;;;;;;7.57;5.72;;;;;;;14.59;52.68;97820.25;5220565;28;20124;-70
2022/04/23 08:46:44;;;;;;;8.82;6.05;;;;;;;14.62;52.47;97822.53;5222675;28;20049;-70
2022/04/23 08:49:39;;;;;;;6.97;5.43;;;;;;;14.18;53.79;97821.03;5223201;28;20224;-70
2022/04/23 08:52:32;;;;;;;7.22;5.15;;;;;;;14.29;54.55;97825.81;5203123;28;20137;-71
2022/04/23 08:55:25;;;;;;;9.35;5.60;;;;;;;13.63;54.92;97823.50;5202361;28;20537;-70
2022/04/23 08:58:17;;;;;;;7.40;5.45;;;;;;;13.99;54.28;97807.38;5217408;28;20601;-70
2022/04/23 09:01:07;;;;;;;8.32;5.93;;;;;;;13.96;54.24;97823.75;5203387;28;20098;-70
2022/04/23 09:03:58;;;;;;;8.35;5.47;;;;;;;13.86;54.33;97823.25;5219629;28;20076;-70
2022/04/23 09:06:49;;;;;;;11.20;5.80;;;;;;;14.38;53.19;97818.50;5215130;28;20584;-70
2022/04/23 09:09:48;;;;;;;10.15;5.50;;;;;;;14.54;52.63;97819.03;5218671;28;20510;-71
2022/04/23 09:12:54;;;;;;;7.78;5.35;;;;;;;14.75;52.79;97812.75;5203051;28;20054;-70
2022/04/23 09:25:14;;;;;;;6.45;4.82;;;;;;;14.46;52.53;97818.31;5196323;28;20733;-71
2022/04/23 09:28:23;;;;;;;6.50;4.90;;;;;;;14.32;53.44;97817.44;5201690;28;20538;-71
2022/04/23 09:31:15;;;;;;;7.03;5.20;;;;;;;14.08;53.67;97811.53;5216611;28;20118;-71
2022/04/23 09:34:21;;;;;;;6.22;4.88;;;;;;;14.77;52.81;97812.56;5216705;28;20084;-71
2022/04/23 09:37:12;;;;;;;5.55;4.95;;;;;;;14.73;52.56;97798.75;5204056;28;20055;-72
2022/04/23 09:40:16;;;;;;;7.20;5.80;;;;;;;15.08;51.53;97800.53;5207434;28;20060;-70
2022/04/23 09:43:11;;;;;;;5.97;5.18;;;;;;;15.08;50.81;97813.88;5208337;28;20167;-70
2022/04/23 09:46:03;;;;;;;;;;;;;;;14.83;51.79;97819.75;5218743;28;20053;-70
2022/04/23 09:49:05;;;;;;;8.05;5.47;;;;;;;14.51;52.35;97814.09;5205681;28;19925;-69
2022/04/23 09:52:01;;;;;;;6.55;5.55;;;;;;;14.99;51.39;97814.06;5215665;28;20048;-70
2022/04/23 09:54:53;;;;;;;7.90;4.72;;;;;;;14.39;52.96;97818.28;5194022;28;20422;-70
2022/04/23 09:57:45;;;;;;;5.25;4.72;;;;;;;14.22;53.56;97808.97;5204551;28;20061;-70
2022/04/23 10:00:40;;;;;;;12.00;5.20;;;;;;;14.75;52.31;97820.75;5212118;28;20060;-70
2022/04/23 10:03:32;;;;;;;12.90;5.20;;;;;;;14.17;52.73;97814.03;5222401;28;20126;-70
2022/04/23 10:06:23;;;;;;;13.90;6.07;;;;;;;14.43;52.51;97824.88;5195933;28;20064;-70
2022/04/23 10:09:19;;;;;;;7.28;4.70;;;;;;;14.08;52.84;97826.72;5214651;28;20698;-72
2022/04/23 10:12:17;;;;;;;7.32;5.20;;;;;;;14.36;52.78;97817.84;5216017;28;20126;-70
2022/04/23 10:15:08;;;;;;;10.68;4.63;;;;;;;14.34;52.56;97818.06;5195690;28;20050;-71
2022/04/23 10:17:59;;;;;;;6.97;4.90;;;;;;;13.86;54.03;97801.94;5203965;28;20156;-70
2022/04/23 10:20:55;;;;;;;9.15;5.50;;;;;;;14.72;51.91;97815.00;5187804;28;20108;-70
2022/04/23 10:24:06;;;;;;;7.15;5.25;;;;;;;15.07;50.74;97815.75;5211020;28;20123;-71
2022/04/23 10:27:07;;;;;;;10.00;5.50;;;;;;;15.31;50.66;97805.50;5191366;28;20135;-72
2022/04/23 10:30:02;;;;;;;6.25;4.95;;;;;;;14.88;52.03;97808.50;5202631;28;20506;-71
2022/04/23 10:32:52;;;;;;;6.70;5.50;;;;;;;15.04;51.33;97811.63;5202809;28;20146;-72
2022/04/23 10:35:42;;;;;;;5.90;4.90;;;;;;;15.25;50.54;97813.28;5195873;28;20050;-71
2022/04/23 10:38:33;;;;;;;6.80;5.50;;;;;;;15.06;51.01;97799.91;5204682;28;20585;-74
2022/04/23 10:41:24;;;;;;;6.40;5.35;;;;;;;14.63;52.18;97813.50;5196349;28;20055;-72
2022/04/23 10:44:21;;;;;;;6.70;5.75;;;;;;;15.08;51.30;97819.22;5198191;28;20469;-73
2022/04/23 10:47:29;;;;;;;;;;;;;;;14.87;51.20;97806.84;5202806;28;20381;-73
2022/04/23 10:50:23;;;;;;;6.75;5.30;;;;;;;15.58;50.19;97801.84;5205174;28;20418;-72
2022/04/23 10:53:13;;;;;;;8.30;5.55;;;;;;;15.45;50.40;97799.97;5186470;28;20578;-69
2022/04/23 10:56:09;;;;;;;7.57;5.63;;;;;;;15.57;49.39;97804.72;5201568;28;20056;-70
2022/04/23 10:59:00;;;;;;;6.50;5.25;;;;;;;15.72;50.03;97792.81;5201321;28;20136;-68
2022/04/23 11:01:50;;;;;;;6.63;5.88;;;;;;;14.98;51.42;97792.91;5211106;28;20529;-69
2022/04/23 11:14:56;;;;;;;8.30;6.40;;;;;;;16.18;48.94;97780.44;5171057;28;20050;-70
2022/04/23 11:17:53;;;;;;;9.13;6.70;;;;;;;15.54;49.49;97770.41;5197880;28;20050;-68
2022/04/23 11:20:43;;;;;;;9.30;6.80;;;;;;;15.47;50.43;97778.41;5205311;28;20053;-69
2022/04/23 11:23:35;;;;;;;13.27;6.68;;;;;;;16.17;48.62;97776.94;5222513;28;20431;-67
2022/04/23 11:26:44;;;;;;;12.43;7.13;;;;;;;15.26;50.13;97774.06;5218080;28;20521;-68
2022/04/23 11:29:34;;;;;;;9.07;6.70;;;;;;;15.84;49.97;97776.19;5217795;28;20064;-68
2022/04/23 11:32:30;;;;;;;11.43;7.75;;;;;;;14.90;50.81;97785.91;5209335;28;20053;-70
2022/04/23 11:35:29;;;;;;;11.00;7.60;;;;;;;15.23;50.47;97783.31;5173018;28;20108;-67
2022/04/23 11:38:21;;;;;;;12.25;7.32;;;;;;;15.15;50.50;97782.69;5193400;28;20057;-69
2022/04/23 11:41:24;;;;;;;10.55;7.28;;;;;;;15.03;50.93;97775.28;5193221;28;20045;-70
2022/04/23 11:47:29;;;;;;;11.80;8.25;;;;;;;15.67;50.20;97770.44;5208486;28;20052;-68
2022/04/23 11:50:21;;;;;;;10.27;7.40;;;;;;;16.15;49.79;97778.19;5216380;28;20474;-70
2022/04/23 11:53:12;;;;;;;9.52;7.38;;;;;;;16.14;48.71;97744.44;5199383;28;20053;-70
2022/04/23 11:56:02;;;;;;;10.05;7.25;;;;;;;16.38;49.23;97759.78;5208771;28;20049;-69
2022/04/23 11:58:54;;;;;;;9.25;7.45;;;;;;;16.03;48.51;97755.81;5202520;28;20208;-71
2022/04/23 12:01:44;;;;;;;10.65;7.47;;;;;;;16.02;49.24;97762.97;5195193;28;20048;-73
2022/04/23 12:04:45;;;;;;;13.73;7.43;;;;;;;16.70;48.54;97756.41;5203251;28;20055;-69
2022/04/23 12:07:35;;;;;;;14.10;7.60;;;;;;;17.05;46.87;97746.13;5209535;28;20056;-67
2022/04/23 12:10:28;;;;;;;10.40;7.25;;;;;;;16.16;48.44;97750.44;5207931;28;20060;-71
2022/04/23 12:13:18;;;;;;;12.40;7.53;;;;;;;16.68;48.58;97745.88;5220937;28;20056;-70
2022/04/23 12:16:08;;;;;;;11.35;7.38;;;;;;;16.58;48.88;97740.16;5208645;28;20199;-71
2022/04/23 12:19:17;;;;;;;10.27;7.60;;;;;;;16.22;48.18;97738.88;5206478;28;20530;-69
2022/04/23 12:22:08;;;;;;;11.13;7.35;;;;;;;15.65;50.58;97732.38;5205032;28;20056;-69
2022/04/23 12:25:15;;;;;;;11.85;8.10;;;;;;;15.90;48.95;97748.63;5205652;28;20053;-71
2022/04/23 12:40:59;;;;;;;9.98;8.27;;;;;;;17.00;46.75;97714.66;5180605;28;20198;-71
2022/04/23 12:43:52;;;;;;;12.07;9.00;;;;;;;17.32;46.95;97711.97;5208077;28;20166;-69
2022/04/23 12:46:56;;;;;;;16.67;8.52;;;;;;;17.42;46.38;97700.72;5195600;28;20078;-70
2022/04/23 12:49:47;;;;;;;;;;;;;;;17.48;45.41;97708.75;5189629;28;20049;-68
2022/04/23 12:52:38;;;;;;;8.98;7.80;;;;;;;17.63;46.66;97699.53;5212848;28;19928;-69
2022/04/23 12:55:30;;;;;;;10.57;8.48;;;;;;;17.38;46.12;97695.00;5206735;28;20674;-72
2022/04/23 12:58:20;;;;;;;10.70;8.75;;;;;;;16.38;47.52;97684.91;5218119;28;20060;-69
2022/04/23 13:01:10;;;;;;;10.88;8.23;;;;;;;16.72;47.91;97688.25;5192937;28;20522;-71
2022/04/23 13:04:03;;;;;;;14.80;9.23;;;;;;;15.85;49.38;97679.72;5199818;28;20520;-71
2022/04/23 13:10:02;;;;;;;12.18;8.10;;;;;;;16.26;49.53;97670.56;5211548;28;20088;-69
2022/04/23 13:12:52;;;;;;;11.57;7.82;;;;;;;16.26;48.87;97681.25;5201740;28;20622;-68
2022/04/23 13:15:42;;;;;;;11.27;8.30;;;;;;;16.63;47.59;97681.50;5212427;28;20132;-69
2022/04/23 13:18:33;;;;;;;11.35;8.93;;;;;;;16.64;47.45;97678.59;5206441;28;20056;-69
2022/04/23 13:21:31;;;;;;;11.70;9.13;;;;;;;16.01;48.74;97675.78;5212114;28;20522;-70
2022/04/23 13:24:21;;;;;;;13.30;9.18;;;;;;;16.76;48.04;97680.63;5201847;28;20456;-70
2022/04/23 13:27:11;;;;;;;10.90;8.98;;;;;;;16.92;46.30;97682.78;5204120;28;20049;-71
2022/04/23 13:30:01;;;;;;;10.70;8.90;;;;;;;16.54;47.39;97680.91;5212309;28;20088;-70
2022/04/23 13:32:51;;;;;;;12.73;8.85;;;;;;;16.72;47.02;97663.31;5213942;28;20052;-69
2022/04/23 13:35:42;;;;;;;14.13;9.00;;;;;;;17.41;46.35;97665.06;5204816;28;20123;-69
2022/04/23 13:38:33;;;;;;;13.80;9.50;;;;;;;17.20;46.58;97676.19;5202515;28;20419;-70
2022/04/23 13:41:23;;;;;;;11.93;9.52;;;;;;;17.06;46.71;97672.81;5207292;28;20056;-71
2022/04/23 13:44:14;;;;;;;13.68;10.18;;;;;;;16.95;46.24;97665.44;5204602;28;20444;-70
2022/04/23 13:47:05;;;;;;;12.75;9.95;;;;;;;17.13;46.52;97669.03;5201492;28;20054;-70
2022/04/23 13:49:56;;;;;;;11.82;9.60;;;;;;;16.93;48.11;97668.38;5202505;28;20057;-69
2022/04/23 13:52:46;;;;;;;16.10;10.27;;;;;;;17.06;47.29;97664.78;5202876;28;20514;-70
2022/04/23 13:55:36;;;;;;;13.57;10.63;;;;;;;16.46;47.79;97665.13;5202663;28;20107;-70
2022/04/23 13:58:28;;;;;;;18.52;11.05;;;;;;;16.79;47.23;97666.81;5203698;28;20188;-69
2022/04/23 14:01:18;;;;;;;17.35;10.63;;;;;;;16.87;47.01;97643.28;5201869;28;20758;-69
2022/04/23 14:10:29;;;;;;;15.13;10.45;;;;;;;16.62;48.27;97643.22;5193610;28;20060;-70
2022/04/23 14:13:19;;;;;;;16.70;11.57;;;;;;;16.63;47.77;97628.78;5204510;22;20127;-89
2022/04/23 14:16:09;;;;;;;15.68;11.95;;;;;;;16.63;47.19;97627.97;5169793;28;20060;-90